Time;durP1;ratioP1;P1;durP2;ratioP2;P2;SDS_P1;SDS_P2;PMS_P1;PMS_P2;Temp;Humidity;BMP_temperature;BMP_pressure;BME280_temperature;BME280_humidity;BME280_pressure;Samples;Min_cycle;Max_cycle;Signal;HPM_P1;HPM_P2
2022/12/03 00:06:28;;;;;;;28.92;12.68;;;0.90;99.90;;;;;;21008826;28;20459;-78
2022/12/03 00:16:29;;;;;;;32.13;13.40;;;0.80;99.90;;;;;;20996574;28;20033;-79
2022/12/03 00:26:30;;;;;;;21.60;9.40;;;0.80;99.90;;;;;;20997695;28;20382;-78
2022/12/03 00:36:31;;;;;;;25.98;10.90;;;0.80;99.90;;;;;;20978082;28;20375;-79
2022/12/03 00:46:32;;;;;;;28.50;12.05;;;0.70;99.90;;;;;;21009340;28;20033;-78
2022/12/03 00:56:32;;;;;;;25.55;12.68;;;0.80;99.90;;;;;;21010337;28;20029;-78
2022/12/03 01:06:33;;;;;;;26.42;12.02;;;0.60;99.90;;;;;;20990362;28;20072;-77
2022/12/03 01:16:34;;;;;;;35.42;13.48;;;0.60;99.90;;;;;;21004676;28;20029;-78
2022/12/03 01:26:35;;;;;;;28.13;12.02;;;0.60;99.90;;;;;;21005866;28;20444;-77
2022/12/03 01:36:36;;;;;;;27.92;12.65;;;0.60;99.90;;;;;;20985878;28;20123;-78
2022/12/03 01:46:39;;;;;;;30.60;12.80;;;0.50;99.90;;;;;;21001988;28;20029;-77
2022/12/03 01:56:40;;;;;;;34.35;13.32;;;0.40;99.90;;;;;;21005273;28;20032;-78
2022/12/03 02:06:42;;;;;;;27.77;11.65;;;0.30;99.90;;;;;;20983353;28;20043;-78
2022/12/03 02:16:44;;;;;;;32.30;13.75;;;0.10;99.90;;;;;;20999625;28;20037;-78
2022/12/03 02:26:44;;;;;;;32.13;13.27;;;0.20;99.90;;;;;;20978130;28;20032;-77
2022/12/03 02:36:45;;;;;;;44.08;14.63;;;0.30;99.90;;;;;;20995641;28;20036;-78
2022/12/03 02:46:46;;;;;;;33.10;13.60;;;0.10;99.90;;;;;;20980175;28;20032;-77
2022/12/03 02:56:47;;;;;;;35.28;12.73;;;0.00;99.90;;;;;;20999648;28;20028;-77
2022/12/03 03:06:48;;;;;;;29.25;11.38;;;0.00;99.90;;;;;;20977368;28;20473;-77
2022/12/03 03:16:54;;;;;;;30.15;13.25;;;0.10;99.90;;;;;;20994372;28;20037;-78
2022/12/03 03:26:55;;;;;;;35.97;14.27;;;-0.10;99.90;;;;;;20993716;28;20043;-77
2022/12/03 03:36:56;;;;;;;43.83;14.85;;;-0.30;99.90;;;;;;20991459;28;20497;-77
2022/12/03 03:46:57;;;;;;;34.03;13.43;;;-0.10;99.90;;;;;;20973387;28;20033;-77
2022/12/03 03:56:58;;;;;;;26.10;11.95;;;0.00;99.90;;;;;;20993014;28;20028;-77
2022/12/03 04:06:59;;;;;;;34.45;14.85;;;0.00;99.90;;;;;;20971694;28;20036;-77
2022/12/03 04:16:59;;;;;;;41.10;15.13;;;0.00;99.90;;;;;;20971185;28;20066;-77
2022/12/03 04:37:20;;;;;;;40.83;16.10;;;0.10;99.90;;;;;;20988439;28;20045;-77
2022/12/03 04:47:21;;;;;;;39.55;14.52;;;0.00;99.90;;;;;;20993569;28;20082;-77
2022/12/03 04:57:37;;;;;;;42.65;15.57;;;0.10;99.90;;;;;;20952536;28;20600;-77
2022/12/03 05:07:38;;;;;;;37.20;14.60;;;0.20;99.90;;;;;;21000551;28;20124;-77
2022/12/03 05:17:38;;;;;;;29.63;12.52;;;0.30;99.90;;;;;;20983447;28;20052;-77
2022/12/03 05:27:39;;;;;;;38.13;14.25;;;0.40;99.90;;;;;;20984112;28;20036;-77
2022/12/03 05:37:40;;;;;;;31.98;14.10;;;0.50;99.90;;;;;;21000162;28;20440;-77
2022/12/03 05:47:41;;;;;;;36.88;14.15;;;0.60;99.90;;;;;;20998797;28;20036;-77
2022/12/03 05:57:42;;;;;;;33.58;13.38;;;0.70;99.90;;;;;;20998543;28;20032;-77
2022/12/03 06:07:43;;;;;;;37.63;14.18;;;0.80;99.90;;;;;;20996770;28;20036;-77
2022/12/03 06:17:44;;;;;;;40.38;15.45;;;0.90;99.90;;;;;;20962038;28;20103;-77
2022/12/03 06:27:44;;;;;;;41.80;15.13;;;1.00;99.90;;;;;;20995483;28;20025;-77
2022/12/03 06:37:45;;;;;;;39.15;14.48;;;1.20;99.90;;;;;;20994702;28;20033;-77
2022/12/03 06:47:46;;;;;;;43.42;15.50;;;1.20;99.90;;;;;;20976027;28;20033;-77
2022/12/03 06:57:47;;;;;;;44.38;15.32;;;1.30;99.90;;;;;;20974527;28;20066;-77
2022/12/03 07:07:50;;;;;;;42.00;15.88;;;1.30;99.90;;;;;;20974304;28;20036;-77
2022/12/03 07:17:51;;;;;;;47.83;16.50;;;1.40;99.90;;;;;;20991244;28;20025;-77
2022/12/03 07:27:52;;;;;;;42.20;15.45;;;1.40;99.90;;;;;;20991208;28;20029;-77
2022/12/03 07:37:53;;;;;;;44.90;17.23;;;1.50;99.90;;;;;;20999820;28;20024;-80
2022/12/03 07:47:53;;;;;;;41.20;15.73;;;1.70;99.90;;;;;;20976800;28;20067;-77
2022/12/03 07:57:54;;;;;;;46.03;16.95;;;1.70;99.90;;;;;;20974775;28;20055;-77
2022/12/03 08:07:55;;;;;;;47.45;15.45;;;1.70;99.90;;;;;;20990086;28;20514;-77
2022/12/03 08:17:59;;;;;;;44.40;15.32;;;1.80;99.90;;;;;;20989457;28;20024;-77
2022/12/03 08:28:10;;;;;;;40.53;14.75;;;1.80;99.90;;;;;;20987553;28;20033;-78
2022/12/03 08:38:11;;;;;;;34.75;12.32;;;1.90;99.90;;;;;;20989863;28;20391;-78
2022/12/03 08:48:12;;;;;;;34.92;12.13;;;1.80;99.90;;;;;;21001289;22;20043;-77
2022/12/03 08:58:25;;;;;;;30.77;12.02;;;1.70;99.90;;;;;;21000034;28;20478;-77
2022/12/03 09:08:26;;;;;;;36.38;12.45;;;1.80;99.90;;;;;;20998908;28;20020;-77
2022/12/03 09:18:27;;;;;;;31.15;11.57;;;1.90;99.90;;;;;;21000500;28;20120;-78
2022/12/03 09:28:27;;;;;;;35.55;12.48;;;2.00;99.90;;;;;;20983932;28;20032;-77
2022/12/03 09:38:28;;;;;;;27.92;11.77;;;2.00;99.90;;;;;;21000484;28;20039;-78
2022/12/03 09:48:29;;;;;;;25.75;10.52;;;2.20;99.90;;;;;;20976658;28;20576;-77
2022/12/03 09:58:30;;;;;;;27.83;10.95;;;2.20;99.90;;;;;;20982305;28;20028;-77
2022/12/03 10:08:31;;;;;;;29.98;10.07;;;2.20;99.90;;;;;;20977934;28;20070;-77
2022/12/03 10:18:34;;;;;;;24.95;9.63;;;2.40;99.90;;;;;;20978398;28;20047;-77
2022/12/03 10:28:37;;;;;;;26.88;9.73;;;2.50;99.90;;;;;;20995856;28;20033;-77
2022/12/03 10:38:38;;;;;;;22.10;8.85;;;2.60;99.90;;;;;;20995520;28;20465;-77
2022/12/03 10:48:39;;;;;;;23.75;9.20;;;2.80;99.90;;;;;;20992888;28;20036;-77
2022/12/03 10:58:40;;;;;;;25.27;10.48;;;2.90;99.90;;;;;;20990509;28;20051;-77
2022/12/03 11:08:44;;;;;;;26.33;9.63;;;3.00;99.90;;;;;;20972982;28;20024;-77
2022/12/03 11:18:45;;;;;;;28.30;10.57;;;3.10;99.90;;;;;;20973157;28;20027;-77
2022/12/03 11:28:45;;;;;;;23.60;9.50;;;3.10;99.90;;;;;;20990257;28;20036;-77
2022/12/03 11:38:52;;;;;;;24.13;10.32;;;3.10;99.90;;;;;;20991016;28;20035;-78
2022/12/03 11:48:56;;;;;;;22.75;9.25;;;3.10;99.90;;;;;;20972894;28;20039;-77
2022/12/03 11:58:59;;;;;;;21.48;9.20;;;3.10;99.90;;;;;;20991809;28;20563;-78
2022/12/03 12:09:02;;;;;;;25.08;10.20;;;3.50;99.90;;;;;;20990532;28;20021;-78
2022/12/03 12:19:30;;;;;;;20.60;9.02;;;3.40;99.90;;;;;;20990052;28;20235;-77
2022/12/03 12:29:30;;;;;;;24.55;8.98;;;3.00;99.90;;;;;;20989670;28;20394;-76
2022/12/03 12:39:31;;;;;;;21.65;9.48;;;3.10;99.90;;;;;;20987357;28;20119;-77
2022/12/03 12:49:32;;;;;;;22.33;9.48;;;2.90;99.90;;;;;;20988474;28;20032;-75
2022/12/03 12:59:33;;;;;;;19.50;9.27;;;2.90;99.90;;;;;;20990808;28;20044;-77
2022/12/03 13:09:33;;;;;;;23.67;9.23;;;2.90;99.90;;;;;;20992286;28;20528;-76
2022/12/03 13:19:35;;;;;;;20.83;8.40;;;3.00;99.90;;;;;;20981927;28;20107;-78
2022/12/03 13:29:36;;;;;;;23.67;8.55;;;3.00;99.90;;;;;;20995668;28;20055;-78
2022/12/03 13:39:47;;;;;;;26.27;9.80;;;3.10;99.90;;;;;;20999224;28;20318;-77
2022/12/03 13:49:54;;;;;;;29.92;9.13;;;3.20;99.90;;;;;;20997939;28;20097;-76
2022/12/03 13:59:54;;;;;;;20.77;8.15;;;3.20;99.90;;;;;;20997692;28;20090;-76
2022/12/03 14:09:55;;;;;;;20.02;8.70;;;3.40;99.90;;;;;;21013065;28;20037;-77
2022/12/03 14:19:59;;;;;;;26.10;8.60;;;3.30;99.90;;;;;;20995381;28;20091;-77
2022/12/03 14:30:00;;;;;;;20.45;8.57;;;3.20;99.90;;;;;;20995526;28;20050;-77
2022/12/03 14:40:02;;;;;;;25.75;9.07;;;3.20;99.90;;;;;;20994736;28;20048;-77
2022/12/03 14:50:04;;;;;;;21.88;8.98;;;3.20;99.90;;;;;;20976036;22;20056;-78
2022/12/03 15:00:06;;;;;;;23.98;9.90;;;3.20;99.90;;;;;;20948758;28;20067;-79
2022/12/03 15:10:08;;;;;;;25.83;10.48;;;3.10;99.90;;;;;;20886433;28;20117;-79
2022/12/03 15:20:09;;;;;;;26.17;10.00;;;3.10;99.90;;;;;;20846204;28;20041;-79
2022/12/03 15:30:10;;;;;;;33.80;10.32;;;3.10;99.90;;;;;;20846009;28;20029;-78
2022/12/03 15:40:11;;;;;;;30.30;9.75;;;3.20;99.90;;;;;;20912257;28;20050;-79
2022/12/03 15:50:13;;;;;;;22.65;9.35;;;3.10;99.90;;;;;;21034905;28;20036;-80
2022/12/03 16:00:15;;;;;;;28.70;10.05;;;3.00;99.90;;;;;;20947593;28;20044;-78
2022/12/03 16:10:20;;;;;;;24.48;9.35;;;2.90;99.90;;;;;;20964720;28;20035;-80
2022/12/03 16:20:20;;;;;;;27.38;9.57;;;2.90;99.90;;;;;;20980840;28;20071;-79
2022/12/03 16:30:23;;;;;;;23.98;9.93;;;2.90;99.90;;;;;;20979847;28;20036;-78
2022/12/03 16:40:24;;;;;;;27.23;9.65;;;2.80;99.90;;;;;;20985511;28;20040;-77
2022/12/03 16:50:25;;;;;;;22.23;9.27;;;2.90;99.90;;;;;;21011638;28;20032;-77
2022/12/03 17:00:26;;;;;;;25.23;10.32;;;2.80;99.90;;;;;;21029755;28;20036;-78
2022/12/03 17:10:26;;;;;;;25.42;9.30;;;2.80;99.90;;;;;;21018220;28;20028;-77
2022/12/03 17:20:28;;;;;;;22.05;8.50;;;2.80;99.90;;;;;;21006633;28;20070;-77
2022/12/03 17:30:28;;;;;;;27.60;9.02;;;2.80;99.90;;;;;;20950706;28;20391;-77
2022/12/03 17:40:29;;;;;;;16.30;7.50;;;2.80;99.90;;;;;;20957385;28;20033;-77
2022/12/03 17:50:30;;;;;;;21.58;8.35;;;2.70;99.90;;;;;;20909214;28;20095;-77
2022/12/03 18:00:31;;;;;;;18.77;7.32;;;2.60;99.90;;;;;;20896640;28;20029;-77
2022/12/03 18:10:32;;;;;;;20.35;7.40;;;2.60;99.90;;;;;;20877883;28;20029;-77
2022/12/03 18:20:33;;;;;;;20.30;8.23;;;2.50;99.90;;;;;;20876018;28;20152;-77
2022/12/03 18:30:34;;;;;;;20.77;7.82;;;2.50;99.90;;;;;;20902214;28;20025;-77
2022/12/03 18:40:35;;;;;;;17.08;8.02;;;2.40;99.90;;;;;;20906693;28;20112;-77
2022/12/03 18:50:36;;;;;;;18.13;7.25;;;2.50;99.90;;;;;;20968822;28;20040;-77
2022/12/03 19:00:37;;;;;;;25.75;7.75;;;2.40;99.90;;;;;;20994849;28;20032;-77
2022/12/03 19:10:39;;;;;;;19.52;7.68;;;2.30;99.90;;;;;;21002471;28;20047;-78
2022/12/03 19:20:40;;;;;;;19.00;7.22;;;2.30;99.90;;;;;;21006759;28;20028;-77
2022/12/03 19:30:41;;;;;;;19.52;8.43;;;2.30;99.90;;;;;;20957763;28;20395;-77
2022/12/03 19:40:42;;;;;;;17.48;7.32;;;2.20;99.90;;;;;;20988857;28;20113;-77
2022/12/03 19:50:52;;;;;;;16.67;7.82;;;2.20;99.90;;;;;;20864661;28;20083;-76
2022/12/03 20:00:53;;;;;;;17.20;7.70;;;2.20;99.90;;;;;;20823223;28;20033;-77
2022/12/03 20:10:54;;;;;;;17.80;7.40;;;2.20;99.90;;;;;;20820902;28;20025;-77
2022/12/03 20:20:59;;;;;;;17.60;7.68;;;2.10;99.90;;;;;;20845082;28;20033;-78
2022/12/03 20:31:09;;;;;;;20.67;9.18;;;2.10;99.90;;;;;;20878051;28;20063;-79
2022/12/03 20:41:12;;;;;;;18.52;8.15;;;2.10;99.90;;;;;;20883638;28;20029;-78
2022/12/03 20:51:16;;;;;;;22.48;9.35;;;2.10;99.90;;;;;;20963285;22;20036;-79
2022/12/03 21:01:23;;;;;;;20.58;8.23;;;2.10;99.90;;;;;;20996289;28;20494;-79
2022/12/03 21:11:28;;;;;;;20.10;8.27;;;2.10;99.90;;;;;;20985950;28;20036;-81
2022/12/03 21:21:29;;;;;;;18.48;8.65;;;2.10;99.90;;;;;;21024992;28;20064;-80
2022/12/03 21:31:30;;;;;;;20.35;9.20;;;2.10;99.90;;;;;;21020920;28;20024;-80
2022/12/03 21:41:33;;;;;;;21.50;8.80;;;2.10;99.90;;;;;;21022078;28;20035;-81
2022/12/03 21:51:34;;;;;;;22.98;9.45;;;2.10;99.90;;;;;;21018275;28;20109;-80
2022/12/03 22:01:35;;;;;;;20.30;9.25;;;2.10;99.90;;;;;;20998298;28;20032;-79
2022/12/03 22:11:36;;;;;;;23.60;9.32;;;2.10;99.90;;;;;;21015380;28;20028;-79
2022/12/03 22:21:36;;;;;;;19.40;8.90;;;2.10;99.90;;;;;;21015366;28;20111;-79
2022/12/03 22:31:38;;;;;;;20.10;8.38;;;2.10;99.90;;;;;;21021659;28;20052;-79
2022/12/03 22:41:38;;;;;;;26.75;9.15;;;2.10;99.90;;;;;;21028918;28;20115;-80
2022/12/03 22:51:39;;;;;;;24.73;9.57;;;2.20;99.90;;;;;;21036966;28;20076;-80
2022/12/03 23:01:41;;;;;;;23.48;9.38;;;2.20;99.90;;;;;;21032986;28;20386;-80
2022/12/03 23:11:44;;;;;;;24.35;9.05;;;2.20;99.90;;;;;;21032350;28;20033;-79
2022/12/03 23:21:44;;;;;;;24.90;9.38;;;2.20;99.90;;;;;;20991657;28;20060;-79
2022/12/03 23:31:45;;;;;;;25.00;9.60;;;2.20;99.90;;;;;;20985714;28;20078;-81
2022/12/03 23:41:49;;;;;;;24.60;10.27;;;2.10;99.90;;;;;;21004068;28;20127;-80
2022/12/03 23:51:50;;;;;;;22.95;9.25;;;2.10;99.90;;;;;;20987809;28;20410;-80
